Etusivu
METAR-TAF:

METAR-TAF

Lentoasemat :

Aalborgin lentoasema

Aalborg, Tanska

Leveyspiiri: 57-06N, Pituuspiiri: 009-51E, korkeus merenpinnasta: 3 m

Tämänhetkinen sää

Tämä raportti tehtiin 26 minuuttia sitten, kello 06.50 UTC
Tuuli 6 kn kaakosta
Lämpötila 12°C
Kosteus 54%
Ilmanpaine 1021 hPa
Näkyvyys 10 km tai enemmän

METAR: EKYT 220650Z AUTO 13006KT 9999 NCD 12/03 Q1021

Aika: 09:16 (07:16 UTC)

Sääennuste

Tämä raportti tehtiin 1 tunti ja 59 minuuttia sitten, kello 05.17 UTC
Ennuste voimassa 22. päivästä klo 06 UTC - 23. päivään klo 06 UTC
Tuuli 5 kn idästä
Näkyvyys 10 km tai enemmän
Muutamia pilviä 20000 ft:n korkeudessa
Tulossa
22. päivästä klo 06 UTC - 22. päivään klo 09 UTC
Tuuli 10 kn idästä/kaakosta
Ajoittain
22. päivästä klo 11 UTC - 22. päivään klo 17 UTC
Tuuli 12 kn idästä/kaakosta puuskistuen 24 kn:hen

TAF: EKYT 220517Z 2206/2306 10005KT 9999 FEW200 BECMG 2206/2209 11010KT TEMPO 2211/2217 12012G24KT

Säähavainnot ja -ennusteet yli 4000 lentoasemalta (METAR- ja TAF-raportit).

Käytössä olevat sääasemat on merkitty karttaan keltaisilla ja punaisilla pisteillä.

Aseta hiiri pisteen päälle nähdäksesi sääaseman nimen.

Klikkaa sitten nähdäksesi säähavainnot ja -ennusteet.

Kartan vaihtaminen: klikkaa mustalla rastilla varustettuja vihreitä pisteitä, niin voit zoomata sisään; viivalla varustettua vihreää pistettä, niin voit zoomata ulos tai vihreitä nuolia, niin pääset viereisille kartoille.


METAR-TAF: